Palermo, Italy
Current Conditions -  °F | °C
As of 11:50 PM on Saturday 20 Dec 2014 (Local Time) from LICJ Reporting Station
Scattered Clouds Scattered Clouds  
Wind Chill: 59°   Ceiling: Unl
Heat Index: 59°   Visibility: 6mi
Dew Point: 52°   Wind: 12mph
Humidity: 77%   Direction: 180°S
Pressure: 30.24"   Gusts: NA
Location:  38.12°N, 13.36°E
Report Text: LICJ 202250Z 18010KT 9999 SCT030 15/11 Q1024
Loading
Personal Weather Stations






























Interactive Weather Map New forecast layout! Learn more

10-Day Weather Forecast

Advertisements
Track Severe Weather on mobile